createdAt,value
2019-02-07T00:00:36.325Z,981.32
2019-02-07T00:01:36.246Z,981.35
2019-02-07T00:02:36.152Z,981.35
2019-02-07T00:03:36.065Z,981.37
2019-02-07T00:04:35.980Z,981.34
2019-02-07T00:05:35.887Z,981.37
2019-02-07T00:06:35.801Z,981.36
2019-02-07T00:07:35.713Z,981.34
2019-02-07T00:08:35.624Z,981.31
2019-02-07T00:09:35.541Z,981.29
2019-02-07T00:10:35.448Z,981.27
2019-02-07T00:11:35.366Z,981.25
2019-02-07T00:12:35.282Z,981.18
2019-02-07T00:13:35.197Z,981.18
2019-02-07T00:14:39.829Z,981.12
2019-02-07T00:15:36.574Z,981.10
2019-02-07T00:16:34.930Z,981.12
2019-02-07T00:17:34.836Z,981.11
2019-02-07T00:18:34.756Z,981.10
2019-02-07T00:19:34.665Z,981.04
2019-02-07T00:20:34.579Z,981.07
2019-02-07T00:21:34.496Z,981.07
2019-02-07T00:22:34.407Z,981.07
2019-02-07T00:23:34.318Z,981.06
2019-02-07T00:24:42.512Z,981.03
2019-02-07T00:25:34.149Z,981.02
2019-02-07T00:26:34.056Z,981.01
2019-02-07T00:27:33.969Z,981.00
2019-02-07T00:28:33.877Z,981.01
2019-02-07T00:29:33.792Z,980.98
2019-02-07T00:30:33.706Z,980.95
2019-02-07T00:31:33.616Z,980.93
2019-02-07T00:32:33.534Z,980.94
2019-02-07T00:33:33.440Z,980.94
2019-02-07T00:34:33.359Z,980.89
2019-02-07T00:35:33.265Z,980.88
2019-02-07T00:36:33.184Z,980.86
2019-02-07T00:37:33.096Z,980.81
2019-02-07T00:38:33.008Z,980.77
2019-02-07T00:39:32.920Z,980.77
2019-02-07T00:40:32.832Z,980.73
2019-02-07T00:41:32.744Z,980.67
2019-02-07T00:42:32.669Z,980.70
2019-02-07T00:43:32.575Z,980.66
2019-02-07T00:44:32.489Z,980.64
2019-02-07T00:45:32.398Z,980.61
2019-02-07T00:46:32.306Z,980.60
2019-02-07T00:47:32.220Z,980.56
2019-02-07T00:48:32.135Z,980.55
2019-02-07T00:49:32.046Z,980.55
2019-02-07T00:50:31.958Z,980.51
2019-02-07T00:51:31.874Z,980.48
2019-02-07T00:52:31.780Z,980.52
2019-02-07T00:53:31.695Z,980.50
2019-02-07T00:54:31.609Z,980.44
2019-02-07T00:55:31.521Z,980.42
2019-02-07T00:56:31.438Z,980.43
2019-02-07T00:57:31.355Z,980.39
2019-02-07T00:58:31.261Z,980.38
2019-02-07T00:59:31.171Z,980.34
2019-02-07T01:00:31.086Z,980.33
2019-02-07T01:01:30.996Z,980.34
2019-02-07T01:02:30.915Z,980.28
2019-02-07T01:03:30.818Z,980.27
2019-02-07T01:04:30.734Z,980.28
2019-02-07T01:05:30.642Z,980.21
2019-02-07T01:06:30.557Z,980.18
2019-02-07T01:07:30.473Z,980.12
2019-02-07T01:08:30.385Z,980.09
2019-02-07T01:09:30.304Z,980.06
2019-02-07T01:10:30.202Z,980.02
2019-02-07T01:11:30.154Z,979.98
2019-02-07T01:12:30.033Z,979.96
2019-02-07T01:13:29.944Z,979.95
2019-02-07T01:14:29.860Z,979.92
2019-02-07T01:15:29.770Z,979.88
2019-02-07T01:16:29.684Z,979.83
2019-02-07T01:17:29.593Z,979.89
2019-02-07T01:18:29.517Z,979.86
2019-02-07T01:19:29.421Z,979.89
2019-02-07T01:20:29.338Z,979.85
2019-02-07T01:21:29.245Z,979.83
2019-02-07T01:22:29.155Z,979.85
2019-02-07T01:23:29.085Z,979.81
2019-02-07T01:24:28.985Z,979.82
2019-02-07T01:25:28.897Z,979.83
2019-02-07T01:26:28.807Z,979.84
2019-02-07T01:27:28.717Z,979.74
2019-02-07T01:28:28.633Z,979.81
2019-02-07T01:29:28.545Z,979.79
2019-02-07T01:30:28.457Z,979.76
2019-02-07T01:31:28.369Z,979.76
2019-02-07T01:32:28.280Z,979.76
2019-02-07T01:33:28.194Z,979.72
2019-02-07T01:34:28.106Z,979.72
2019-02-07T01:35:28.021Z,979.66
2019-02-07T01:36:27.936Z,979.67
2019-02-07T01:37:27.845Z,979.68
2019-02-07T01:38:27.759Z,979.63
2019-02-07T01:39:27.670Z,979.65
2019-02-07T01:40:27.583Z,979.59
2019-02-07T01:41:27.493Z,979.55
2019-02-07T01:42:27.404Z,979.52
2019-02-07T01:43:27.340Z,979.50
2019-02-07T01:44:27.228Z,979.49
2019-02-07T01:45:27.143Z,979.46
2019-02-07T01:46:27.061Z,979.42
2019-02-07T01:47:26.960Z,979.38
2019-02-07T01:48:26.879Z,979.38
2019-02-07T01:49:26.794Z,979.33
2019-02-07T01:50:26.701Z,979.29
2019-02-07T01:51:26.615Z,979.28
2019-02-07T01:52:26.528Z,979.30
2019-02-07T01:53:26.448Z,979.26
2019-02-07T01:54:26.352Z,979.24
2019-02-07T01:55:26.266Z,979.27
2019-02-07T01:56:26.180Z,979.29
2019-02-07T01:57:26.087Z,979.27
2019-02-07T01:58:26.008Z,979.27
2019-02-07T01:59:25.921Z,979.25
2019-02-07T02:00:25.824Z,979.21
2019-02-07T02:01:25.739Z,979.22
2019-02-07T02:02:25.653Z,979.19
2019-02-07T02:03:25.563Z,979.18
2019-02-07T02:04:25.487Z,979.19
2019-02-07T02:05:25.383Z,979.20
2019-02-07T02:06:25.303Z,979.20
2019-02-07T02:07:25.210Z,979.16
2019-02-07T02:08:25.126Z,979.20
2019-02-07T02:09:25.059Z,979.17
2019-02-07T02:10:24.948Z,979.14
2019-02-07T02:11:24.862Z,979.15
2019-02-07T02:12:24.775Z,979.13
2019-02-07T02:13:24.681Z,979.12
2019-02-07T02:14:24.595Z,979.08
2019-02-07T02:15:25.315Z,979.05
2019-02-07T02:16:24.429Z,979.06
2019-02-07T02:17:24.335Z,979.06
2019-02-07T02:18:24.249Z,979.05
2019-02-07T02:19:24.162Z,979.02
2019-02-07T02:20:24.071Z,978.99
2019-02-07T02:21:23.992Z,978.98
2019-02-07T02:22:23.897Z,979.01
2019-02-07T02:23:23.809Z,978.96
2019-02-07T02:24:23.724Z,978.96
2019-02-07T02:25:23.637Z,978.91
2019-02-07T02:26:23.546Z,978.86
2019-02-07T02:27:23.457Z,978.84
2019-02-07T02:28:23.371Z,978.81
2019-02-07T02:29:23.282Z,978.79
2019-02-07T02:30:23.195Z,978.87
2019-02-07T02:31:23.110Z,978.74
2019-02-07T02:32:23.021Z,978.75
2019-02-07T02:33:22.932Z,978.73
2019-02-07T02:34:22.850Z,978.72
2019-02-07T02:35:22.762Z,978.70
2019-02-07T02:36:22.673Z,978.72
2019-02-07T02:37:22.579Z,978.67
2019-02-07T02:38:22.489Z,978.64
2019-02-07T02:39:22.415Z,978.65
2019-02-07T02:40:22.333Z,978.63
2019-02-07T02:41:22.243Z,978.66
2019-02-07T02:42:22.142Z,978.65
2019-02-07T02:43:22.055Z,978.59
2019-02-07T02:44:21.968Z,978.65
2019-02-07T02:45:21.881Z,978.60
2019-02-07T02:46:21.793Z,978.57
2019-02-07T02:47:21.709Z,978.57
2019-02-07T02:48:21.631Z,978.56
2019-02-07T02:49:21.528Z,978.51
2019-02-07T02:50:21.440Z,978.54
2019-02-07T02:51:21.356Z,978.53
2019-02-07T02:52:21.268Z,978.54
2019-02-07T02:53:21.179Z,978.50
2019-02-07T02:54:21.091Z,978.48
2019-02-07T02:55:21.001Z,978.50
2019-02-07T02:56:20.918Z,978.48
2019-02-07T02:57:20.827Z,978.51
2019-02-07T02:58:20.738Z,978.46
2019-02-07T02:59:20.660Z,978.37
2019-02-07T03:00:20.568Z,978.39
2019-02-07T03:01:20.478Z,978.37
2019-02-07T03:02:20.390Z,978.38
2019-02-07T03:03:20.304Z,978.34
2019-02-07T03:04:20.219Z,978.33
2019-02-07T03:05:20.120Z,978.34
2019-02-07T03:06:20.042Z,978.35
2019-02-07T03:07:19.956Z,978.34
2019-02-07T03:08:19.862Z,978.38
2019-02-07T03:09:19.783Z,978.35
2019-02-07T03:10:19.691Z,978.36
2019-02-07T03:11:19.598Z,978.33
2019-02-07T03:12:19.516Z,978.27
2019-02-07T03:13:19.422Z,978.25
2019-02-07T03:14:19.339Z,978.26
2019-02-07T03:15:19.270Z,978.22
2019-02-07T03:16:19.165Z,978.20
2019-02-07T03:17:19.076Z,978.18
2019-02-07T03:18:18.991Z,978.18
2019-02-07T03:19:18.909Z,978.11
2019-02-07T03:20:18.813Z,978.17
2019-02-07T03:21:18.726Z,978.13
2019-02-07T03:22:18.641Z,978.13
2019-02-07T03:23:18.552Z,978.20
2019-02-07T03:24:18.464Z,978.18
2019-02-07T03:25:18.371Z,978.20
2019-02-07T03:26:18.291Z,978.24
2019-02-07T03:27:18.200Z,978.27
2019-02-07T03:28:18.117Z,978.29
2019-02-07T03:29:18.027Z,978.28
2019-02-07T03:30:17.940Z,978.31
2019-02-07T03:31:17.846Z,978.27
2019-02-07T03:32:17.763Z,978.29
2019-02-07T03:33:17.677Z,978.29
2019-02-07T03:34:17.589Z,978.28
2019-02-07T03:35:17.501Z,978.26
2019-02-07T03:36:17.411Z,978.29
2019-02-07T03:37:17.324Z,978.27
2019-02-07T03:38:17.244Z,978.26
2019-02-07T03:39:17.152Z,978.28
2019-02-07T03:40:17.057Z,978.31
2019-02-07T03:41:16.975Z,978.23
2019-02-07T03:42:16.885Z,978.20
2019-02-07T03:43:16.798Z,978.17
2019-02-07T03:44:16.712Z,978.14
2019-02-07T03:45:16.622Z,978.16
2019-02-07T03:46:16.534Z,978.14
2019-02-07T03:47:16.447Z,978.09
2019-02-07T03:48:16.362Z,978.14
2019-02-07T03:49:16.275Z,978.06
2019-02-07T03:50:16.193Z,978.10
2019-02-07T03:51:16.097Z,978.06
2019-02-07T03:52:16.009Z,978.07
2019-02-07T03:53:15.922Z,978.05
2019-02-07T03:54:15.833Z,978.06
2019-02-07T03:55:15.746Z,978.01
2019-02-07T03:56:15.658Z,977.98
2019-02-07T03:57:15.584Z,978.00
2019-02-07T03:58:15.484Z,977.97
2019-02-07T03:59:15.399Z,978.00
2019-02-07T04:00:15.309Z,977.94
2019-02-07T04:01:15.220Z,977.93
2019-02-07T04:02:15.130Z,977.96
2019-02-07T04:03:15.047Z,977.96
2019-02-07T04:04:14.958Z,977.97
2019-02-07T04:05:14.879Z,977.99
2019-02-07T04:06:14.783Z,977.98
2019-02-07T04:07:14.699Z,978.02
2019-02-07T04:08:14.610Z,978.01
2019-02-07T04:09:14.520Z,977.95
2019-02-07T04:10:14.427Z,977.93
2019-02-07T04:11:14.347Z,977.90
2019-02-07T04:12:14.254Z,977.87
2019-02-07T04:13:14.170Z,977.90
2019-02-07T04:14:14.086Z,977.85
2019-02-07T04:15:13.994Z,977.83
2019-02-07T04:16:15.387Z,977.80
2019-02-07T04:17:13.816Z,977.76
2019-02-07T04:18:13.733Z,977.75
2019-02-07T04:19:13.640Z,977.79
2019-02-07T04:20:13.556Z,977.76
2019-02-07T04:21:13.469Z,977.81
2019-02-07T04:22:13.375Z,977.71
2019-02-07T04:23:13.295Z,977.67
2019-02-07T04:24:13.314Z,977.67
2019-02-07T04:25:13.117Z,977.69
2019-02-07T04:26:13.029Z,977.71
2019-02-07T04:27:12.940Z,977.71
2019-02-07T04:28:12.856Z,977.71
2019-02-07T04:29:12.769Z,977.72
2019-02-07T04:30:12.684Z,977.72
2019-02-07T04:31:12.595Z,977.77
2019-02-07T04:32:12.507Z,977.75
2019-02-07T04:33:12.419Z,977.74
2019-02-07T04:34:12.335Z,977.74
2019-02-07T04:35:12.240Z,977.75
2019-02-07T04:36:12.152Z,977.73
2019-02-07T04:37:12.069Z,977.72
2019-02-07T04:38:11.983Z,977.72
2019-02-07T04:39:11.891Z,977.68
2019-02-07T04:40:12.536Z,977.67
2019-02-07T04:41:11.712Z,977.72
2019-02-07T04:42:11.624Z,977.72
2019-02-07T04:43:11.543Z,977.71
2019-02-07T04:44:11.462Z,977.75
2019-02-07T04:45:11.367Z,977.70
2019-02-07T04:46:11.277Z,977.66
2019-02-07T04:47:11.186Z,977.70
2019-02-07T04:48:11.177Z,977.65
2019-02-07T04:49:11.018Z,977.65
2019-02-07T04:50:10.933Z,977.63
2019-02-07T04:51:10.844Z,977.68
2019-02-07T04:52:10.777Z,977.63
2019-02-07T04:53:10.662Z,977.71
2019-02-07T04:54:10.579Z,977.65
2019-02-07T04:55:10.491Z,977.64
2019-02-07T04:56:10.406Z,977.65
2019-02-07T04:57:10.312Z,977.67
2019-02-07T04:58:10.226Z,977.63
2019-02-07T04:59:10.142Z,977.61
2019-02-07T05:00:10.290Z,977.58
2019-02-07T05:01:09.967Z,977.59
2019-02-07T05:02:09.877Z,977.52
2019-02-07T05:03:09.791Z,977.52
2019-02-07T05:04:09.708Z,977.51
2019-02-07T05:05:09.618Z,977.51
2019-02-07T05:06:09.528Z,977.48
2019-02-07T05:07:09.440Z,977.46
2019-02-07T05:08:09.356Z,977.54
2019-02-07T05:09:09.273Z,977.52
2019-02-07T05:10:09.176Z,977.56
2019-02-07T05:11:09.095Z,977.61
2019-02-07T05:12:09.001Z,977.51
2019-02-07T05:13:08.911Z,977.46
2019-02-07T05:14:08.827Z,977.44
2019-02-07T05:15:08.745Z,977.46
2019-02-07T05:16:08.647Z,977.51
2019-02-07T05:17:08.563Z,977.47
2019-02-07T05:18:08.475Z,977.51
2019-02-07T05:19:08.391Z,977.50
2019-02-07T05:20:08.410Z,977.46
2019-02-07T05:21:08.214Z,977.41
2019-02-07T05:22:08.122Z,977.40
2019-02-07T05:23:08.037Z,977.38
2019-02-07T05:24:07.954Z,977.38
2019-02-07T05:25:07.864Z,977.40
2019-02-07T05:26:07.779Z,977.32
2019-02-07T05:27:07.689Z,977.32
2019-02-07T05:28:07.594Z,977.25
2019-02-07T05:29:07.509Z,977.25
2019-02-07T05:30:07.427Z,977.26
2019-02-07T05:31:07.346Z,977.22
2019-02-07T05:32:07.269Z,977.22
2019-02-07T05:33:07.163Z,977.17
2019-02-07T05:34:07.081Z,977.21
2019-02-07T05:35:06.990Z,977.16
2019-02-07T05:36:06.897Z,977.16
2019-02-07T05:37:06.818Z,977.09
2019-02-07T05:38:06.726Z,977.06
2019-02-07T05:39:06.639Z,977.02
2019-02-07T05:40:06.549Z,976.93
2019-02-07T05:41:06.465Z,976.94
2019-02-07T05:42:06.375Z,976.93
2019-02-07T05:43:06.285Z,976.90
2019-02-07T05:44:06.200Z,976.95
2019-02-07T05:45:06.114Z,977.04
2019-02-07T05:46:06.025Z,977.13
2019-02-07T05:47:05.941Z,977.14
2019-02-07T05:48:05.851Z,977.13
2019-02-07T05:49:05.759Z,977.17
2019-02-07T05:50:05.671Z,977.16
2019-02-07T05:51:05.588Z,977.14
2019-02-07T05:52:05.497Z,977.11
2019-02-07T05:53:05.410Z,977.09
2019-02-07T05:54:05.322Z,977.05
2019-02-07T05:55:05.235Z,976.99
2019-02-07T05:56:05.150Z,976.95
2019-02-07T05:57:05.066Z,976.88
2019-02-07T05:58:04.973Z,976.83
2019-02-07T05:59:04.888Z,976.88
2019-02-07T06:00:04.800Z,976.89
2019-02-07T06:01:04.707Z,976.91
2019-02-07T06:02:04.624Z,976.87
2019-02-07T06:03:04.538Z,976.85
2019-02-07T06:04:04.445Z,976.79
2019-02-07T06:05:04.362Z,976.79
2019-02-07T06:06:04.274Z,976.83
2019-02-07T06:07:04.276Z,976.89
2019-02-07T06:08:04.100Z,976.85
2019-02-07T06:09:04.007Z,976.87
2019-02-07T06:10:03.923Z,976.88
2019-02-07T06:11:03.842Z,976.87
2019-02-07T06:12:03.749Z,976.87
2019-02-07T06:13:03.671Z,976.92
2019-02-07T06:14:03.573Z,976.98
2019-02-07T06:15:03.489Z,977.04
2019-02-07T06:16:03.397Z,977.05
2019-02-07T06:17:03.311Z,977.03
2019-02-07T06:18:03.222Z,976.94
2019-02-07T06:19:03.135Z,976.95
2019-02-07T06:20:03.048Z,977.03
2019-02-07T06:21:02.962Z,977.11
2019-02-07T06:22:02.870Z,977.04
2019-02-07T06:23:02.785Z,977.02
2019-02-07T06:24:02.708Z,977.01
2019-02-07T06:25:02.612Z,977.07
2019-02-07T06:26:02.524Z,977.13
2019-02-07T06:27:02.439Z,977.09
2019-02-07T06:28:02.348Z,977.07
2019-02-07T06:29:02.260Z,977.08
2019-02-07T06:30:02.167Z,977.16
2019-02-07T06:31:02.084Z,977.10
2019-02-07T06:32:01.997Z,977.07
2019-02-07T06:33:01.911Z,977.09
2019-02-07T06:34:01.822Z,977.10
2019-02-07T06:35:01.732Z,977.13
2019-02-07T06:36:01.647Z,977.10
2019-02-07T06:37:01.558Z,977.11
2019-02-07T06:38:01.471Z,977.15
2019-02-07T06:39:01.382Z,977.14
2019-02-07T06:40:01.295Z,977.10
2019-02-07T06:41:01.205Z,977.16
2019-02-07T06:42:01.120Z,977.20
2019-02-07T06:43:01.042Z,977.20
2019-02-07T06:44:00.950Z,977.17
2019-02-07T06:45:00.857Z,977.19
2019-02-07T06:46:00.771Z,977.14
2019-02-07T06:47:00.681Z,977.20
2019-02-07T06:48:00.597Z,977.20
2019-02-07T06:49:00.508Z,977.18
2019-02-07T06:50:00.483Z,977.17
2019-02-07T06:51:00.335Z,977.18
2019-02-07T06:52:00.247Z,977.19
2019-02-07T06:53:00.167Z,977.18
2019-02-07T06:54:00.086Z,977.16
2019-02-07T06:54:59.990Z,977.15
2019-02-07T06:55:59.906Z,977.09
2019-02-07T06:56:59.809Z,977.08
2019-02-07T06:57:59.719Z,977.09
2019-02-07T06:58:59.643Z,977.06
2019-02-07T06:59:59.549Z,977.10
2019-02-07T07:00:59.458Z,977.16
2019-02-07T07:01:59.375Z,977.16
2019-02-07T07:02:59.287Z,977.22
2019-02-07T07:03:59.204Z,977.26
2019-02-07T07:04:59.112Z,977.26
2019-02-07T07:05:59.026Z,977.25
2019-02-07T07:06:58.935Z,977.26
2019-02-07T07:07:58.844Z,977.27
2019-02-07T07:08:58.761Z,977.29
2019-02-07T07:09:58.673Z,977.30
2019-02-07T07:10:58.592Z,977.36
2019-02-07T07:11:58.499Z,977.31
2019-02-07T07:12:58.412Z,977.37
2019-02-07T07:13:58.325Z,977.45
2019-02-07T07:14:58.238Z,977.46
2019-02-07T07:15:58.143Z,977.47
2019-02-07T07:16:58.062Z,977.44
2019-02-07T07:17:57.973Z,977.39
2019-02-07T07:18:57.893Z,977.36
2019-02-07T07:19:57.799Z,977.41
2019-02-07T07:20:59.469Z,977.37
2019-02-07T07:21:57.626Z,977.30
2019-02-07T07:22:57.598Z,977.29
2019-02-07T07:23:57.474Z,977.28
2019-02-07T07:24:57.363Z,977.18
2019-02-07T07:25:57.280Z,977.15
2019-02-07T07:26:57.190Z,977.11
2019-02-07T07:27:57.100Z,977.17
2019-02-07T07:28:57.015Z,977.23
2019-02-07T07:29:56.975Z,977.18
2019-02-07T07:30:56.838Z,977.16
2019-02-07T07:31:56.754Z,977.15
2019-02-07T07:32:56.668Z,977.16
2019-02-07T07:33:56.576Z,977.09
2019-02-07T07:34:56.493Z,977.02
2019-02-07T07:35:56.409Z,977.04
2019-02-07T07:36:56.317Z,977.07
2019-02-07T07:37:56.230Z,977.04
2019-02-07T07:38:56.145Z,976.97
2019-02-07T07:39:56.051Z,977.00
2019-02-07T07:40:55.971Z,977.02
2019-02-07T07:41:55.882Z,976.97
2019-02-07T07:42:55.799Z,976.90
2019-02-07T07:43:55.707Z,976.91
2019-02-07T07:44:55.618Z,976.96
2019-02-07T07:45:55.530Z,977.00
2019-02-07T07:46:55.446Z,976.99
2019-02-07T07:47:55.363Z,976.98
2019-02-07T07:48:55.270Z,976.94
2019-02-07T07:49:55.208Z,976.91
2019-02-07T07:50:55.099Z,976.92
2019-02-07T07:51:55.012Z,976.95
2019-02-07T07:52:54.927Z,976.93
2019-02-07T07:53:54.829Z,976.97
2019-02-07T07:54:54.753Z,976.98
2019-02-07T07:55:54.663Z,976.94
2019-02-07T07:56:54.576Z,976.91
2019-02-07T07:57:54.487Z,976.99
2019-02-07T07:58:54.729Z,977.03
2019-02-07T07:59:54.312Z,976.97
2019-02-07T08:00:54.227Z,976.94
2019-02-07T08:01:54.138Z,977.00
2019-02-07T08:02:54.083Z,977.01
2019-02-07T08:03:53.960Z,976.99
2019-02-07T08:04:53.878Z,977.02
2019-02-07T08:05:53.799Z,976.98
2019-02-07T08:06:53.713Z,976.98
2019-02-07T08:07:53.618Z,976.99
2019-02-07T08:08:53.528Z,976.97
2019-02-07T08:09:53.446Z,976.88
2019-02-07T08:10:53.388Z,976.87
2019-02-07T08:11:53.269Z,976.82
2019-02-07T08:12:53.221Z,976.84
2019-02-07T08:13:53.094Z,976.80
2019-02-07T08:14:53.008Z,976.83
2019-02-07T08:15:52.919Z,976.82
2019-02-07T08:16:52.839Z,976.77
2019-02-07T08:17:52.745Z,976.78
2019-02-07T08:18:52.657Z,976.78
2019-02-07T08:19:52.569Z,976.84
2019-02-07T08:20:52.479Z,976.82
2019-02-07T08:21:52.397Z,976.81
2019-02-07T08:22:52.312Z,976.81
2019-02-07T08:23:52.229Z,976.83
2019-02-07T08:24:52.138Z,976.82
2019-02-07T08:25:52.050Z,976.80
2019-02-07T08:26:51.961Z,976.79
2019-02-07T08:27:51.877Z,976.79
2019-02-07T08:28:51.786Z,976.79
2019-02-07T08:29:51.701Z,976.83
2019-02-07T08:30:51.610Z,976.87
2019-02-07T08:31:51.527Z,976.87
2019-02-07T08:32:51.444Z,976.88
2019-02-07T08:33:51.354Z,976.91
2019-02-07T08:34:51.268Z,976.83
2019-02-07T08:35:51.182Z,976.86
2019-02-07T08:36:51.094Z,976.85
2019-02-07T08:37:51.008Z,976.83
2019-02-07T08:38:50.934Z,976.87
2019-02-07T08:39:50.834Z,976.83
2019-02-07T08:40:50.748Z,976.73
2019-02-07T08:41:50.659Z,976.70
2019-02-07T08:42:50.591Z,976.74
2019-02-07T08:43:50.483Z,976.74
2019-02-07T08:44:50.400Z,976.72
2019-02-07T08:45:50.340Z,976.77
2019-02-07T08:46:50.224Z,976.75
2019-02-07T08:47:58.365Z,976.74
2019-02-07T08:48:50.051Z,976.70
2019-02-07T08:49:50.001Z,976.69
2019-02-07T08:50:49.874Z,976.71
2019-02-07T08:51:49.908Z,976.71
2019-02-07T08:52:49.706Z,976.66
2019-02-07T08:53:49.618Z,976.69
2019-02-07T08:54:49.530Z,976.72
2019-02-07T08:55:49.446Z,976.74
2019-02-07T08:56:49.357Z,976.71
2019-02-07T08:57:49.266Z,976.68
2019-02-07T08:58:49.182Z,976.69
2019-02-07T08:59:49.098Z,976.68
2019-02-07T09:00:49.014Z,976.67
2019-02-07T09:01:48.929Z,976.65
2019-02-07T09:02:51.866Z,976.61
2019-02-07T09:03:48.745Z,976.62
2019-02-07T09:04:48.663Z,976.54
2019-02-07T09:05:48.576Z,976.54
2019-02-07T09:06:48.495Z,976.56
2019-02-07T09:07:48.402Z,976.59
2019-02-07T09:08:48.316Z,976.59
2019-02-07T09:09:48.223Z,976.62
2019-02-07T09:10:48.143Z,976.64
2019-02-07T09:11:48.056Z,976.59
2019-02-07T09:12:47.963Z,976.61
2019-02-07T09:13:47.884Z,976.61
2019-02-07T09:14:47.795Z,976.58
2019-02-07T09:15:47.710Z,976.53
2019-02-07T09:16:47.622Z,976.53
2019-02-07T09:17:47.539Z,976.50
2019-02-07T09:18:47.452Z,976.50
2019-02-07T09:19:47.364Z,976.44
2019-02-07T09:20:47.277Z,976.42
2019-02-07T09:21:47.183Z,976.45
2019-02-07T09:22:47.103Z,976.41
2019-02-07T09:23:47.017Z,976.42
2019-02-07T09:24:46.931Z,976.44
2019-02-07T09:25:46.846Z,976.50
2019-02-07T09:26:46.755Z,976.55
2019-02-07T09:27:46.675Z,976.52
2019-02-07T09:28:46.586Z,976.49
2019-02-07T09:29:46.508Z,976.49
2019-02-07T09:30:46.413Z,976.50
2019-02-07T09:31:46.330Z,976.55
2019-02-07T09:32:46.238Z,976.53
2019-02-07T09:33:46.153Z,976.52
2019-02-07T09:34:46.066Z,976.51
2019-02-07T09:35:45.992Z,976.46
2019-02-07T09:36:45.891Z,976.47
2019-02-07T09:37:45.806Z,976.51
2019-02-07T09:38:45.735Z,976.40
2019-02-07T09:39:45.636Z,976.39
2019-02-07T09:40:45.555Z,976.35
2019-02-07T09:41:45.461Z,976.35
2019-02-07T09:42:45.434Z,976.30
2019-02-07T09:43:45.290Z,976.32
2019-02-07T09:44:45.202Z,976.32
2019-02-07T09:45:45.116Z,976.35
2019-02-07T09:46:45.028Z,976.29
2019-02-07T09:47:44.941Z,976.29
2019-02-07T09:48:44.856Z,976.26
2019-02-07T09:49:44.774Z,976.31
2019-02-07T09:50:44.687Z,976.28
2019-02-07T09:51:44.596Z,976.33
2019-02-07T09:52:44.506Z,976.37
2019-02-07T09:53:44.429Z,976.34
2019-02-07T09:54:44.340Z,976.31
2019-02-07T09:55:44.264Z,976.35
2019-02-07T09:56:44.165Z,976.36
2019-02-07T09:57:44.080Z,976.35
2019-02-07T09:58:43.995Z,976.37
2019-02-07T09:59:43.905Z,976.36
2019-02-07T10:00:43.824Z,976.26
2019-02-07T10:01:43.740Z,976.24
2019-02-07T10:02:43.646Z,976.21
2019-02-07T10:03:43.569Z,976.24
2019-02-07T10:04:43.489Z,976.27
2019-02-07T10:05:43.389Z,976.26
2019-02-07T10:06:43.301Z,976.28
2019-02-07T10:07:43.218Z,976.31
2019-02-07T10:08:43.124Z,976.27
2019-02-07T10:09:43.043Z,976.27
2019-02-07T10:10:42.966Z,976.28
2019-02-07T10:11:42.874Z,976.29
2019-02-07T10:12:42.796Z,976.33
2019-02-07T10:13:42.702Z,976.33
2019-02-07T10:14:42.616Z,976.35
2019-02-07T10:15:42.532Z,976.34
2019-02-07T10:16:42.450Z,976.31
2019-02-07T10:17:42.362Z,976.37
2019-02-07T10:18:42.273Z,976.27
2019-02-07T10:19:42.205Z,976.32
2019-02-07T10:20:42.098Z,976.32
2019-02-07T10:21:42.018Z,976.32
2019-02-07T10:22:41.938Z,976.30
2019-02-07T10:23:41.844Z,976.31
2019-02-07T10:24:41.755Z,976.33
2019-02-07T10:25:41.672Z,976.31
2019-02-07T10:26:41.586Z,976.30
2019-02-07T10:27:41.500Z,976.27
2019-02-07T10:28:41.409Z,976.26
2019-02-07T10:29:41.326Z,976.19
2019-02-07T10:30:41.241Z,976.10
2019-02-07T10:31:41.161Z,976.07
2019-02-07T10:32:41.145Z,976.10
2019-02-07T10:33:40.986Z,976.09
2019-02-07T10:34:40.902Z,976.07
2019-02-07T10:35:40.815Z,976.05
2019-02-07T10:36:40.727Z,976.05
2019-02-07T10:37:40.645Z,975.99
2019-02-07T10:38:40.554Z,976.01
2019-02-07T10:39:40.473Z,976.08
2019-02-07T10:40:40.381Z,976.01
2019-02-07T10:41:40.309Z,976.03
2019-02-07T10:42:40.214Z,976.01
2019-02-07T10:43:40.128Z,976.03
2019-02-07T10:44:40.041Z,976.05
2019-02-07T10:45:39.957Z,976.00
2019-02-07T10:46:39.872Z,976.01
2019-02-07T10:47:39.789Z,975.95
2019-02-07T10:48:44.545Z,976.02
2019-02-07T10:49:39.618Z,975.98
2019-02-07T10:50:39.534Z,975.98
2019-02-07T10:51:39.450Z,976.07
2019-02-07T10:52:40.112Z,976.03
2019-02-07T10:53:39.275Z,975.99
2019-02-07T10:54:39.194Z,975.99
2019-02-07T10:55:39.103Z,975.98
2019-02-07T10:56:39.021Z,975.96
2019-02-07T10:57:38.941Z,975.98
2019-02-07T10:58:38.844Z,975.87
2019-02-07T10:59:38.763Z,975.92
2019-02-07T11:00:38.677Z,975.89
2019-02-07T11:01:38.586Z,975.82
2019-02-07T11:02:38.505Z,975.77
2019-02-07T11:03:38.427Z,975.74
2019-02-07T11:04:38.334Z,975.69
2019-02-07T11:05:38.248Z,975.70
2019-02-07T11:06:38.173Z,975.73
2019-02-07T11:07:38.079Z,975.67
2019-02-07T11:08:37.991Z,975.64
2019-02-07T11:09:37.914Z,975.59
2019-02-07T11:10:37.823Z,975.63
2019-02-07T11:11:37.739Z,975.62
2019-02-07T11:12:37.656Z,975.61
2019-02-07T11:13:37.565Z,975.63
2019-02-07T11:14:37.484Z,975.62
2019-02-07T11:15:37.399Z,975.61
2019-02-07T11:16:37.312Z,975.57
2019-02-07T11:17:37.226Z,975.55
2019-02-07T11:18:37.141Z,975.60
2019-02-07T11:19:37.053Z,975.57
2019-02-07T11:20:36.973Z,975.55
2019-02-07T11:21:36.889Z,975.55
2019-02-07T11:22:36.803Z,975.57
2019-02-07T11:23:36.719Z,975.52
2019-02-07T11:24:36.629Z,975.54
2019-02-07T11:25:36.551Z,975.53
2019-02-07T11:26:36.457Z,975.52
2019-02-07T11:27:36.376Z,975.48
2019-02-07T11:28:36.290Z,975.46
2019-02-07T11:29:36.207Z,975.47
2019-02-07T11:30:36.122Z,975.48
2019-02-07T11:31:36.039Z,975.44
2019-02-07T11:32:35.952Z,975.41
2019-02-07T11:33:35.870Z,975.41
2019-02-07T11:34:35.785Z,975.41
2019-02-07T11:35:35.698Z,975.37
2019-02-07T11:36:35.606Z,975.34
2019-02-07T11:37:35.522Z,975.40
2019-02-07T11:38:35.448Z,975.36
2019-02-07T11:39:35.361Z,975.35
2019-02-07T11:40:35.271Z,975.35
2019-02-07T11:41:35.187Z,975.34
2019-02-07T11:42:35.103Z,975.34
2019-02-07T11:43:35.018Z,975.35
2019-02-07T11:44:34.934Z,975.34
2019-02-07T11:45:34.851Z,975.32
2019-02-07T11:46:37.528Z,975.33
2019-02-07T11:47:34.678Z,975.30
2019-02-07T11:48:34.591Z,975.33
2019-02-07T11:49:34.515Z,975.28
2019-02-07T11:50:34.420Z,975.33
2019-02-07T11:51:34.341Z,975.31
2019-02-07T11:52:34.254Z,975.32
2019-02-07T11:53:34.169Z,975.34
2019-02-07T11:54:34.081Z,975.32
2019-02-07T11:55:33.996Z,975.27
2019-02-07T11:56:33.912Z,975.27
2019-02-07T11:57:33.831Z,975.29
2019-02-07T11:58:33.865Z,975.24
2019-02-07T11:59:33.662Z,975.26
2019-02-07T12:00:33.576Z,975.25
2019-02-07T12:01:33.494Z,975.21
2019-02-07T12:02:33.410Z,975.20
2019-02-07T12:03:33.325Z,975.19
2019-02-07T12:04:33.233Z,975.17
2019-02-07T12:05:33.148Z,975.18
2019-02-07T12:06:33.070Z,975.22
2019-02-07T12:07:32.985Z,975.23
2019-02-07T12:08:32.899Z,975.21
2019-02-07T12:09:32.813Z,975.22
2019-02-07T12:10:32.726Z,975.15
2019-02-07T12:11:32.645Z,975.19
2019-02-07T12:12:32.556Z,975.22
2019-02-07T12:13:32.476Z,975.23
2019-02-07T12:14:32.389Z,975.21
2019-02-07T12:15:32.309Z,975.24
2019-02-07T12:16:32.235Z,975.26
2019-02-07T12:17:32.170Z,975.20
2019-02-07T12:18:32.052Z,975.23
2019-02-07T12:19:31.993Z,975.19
2019-02-07T12:20:31.919Z,975.19
2019-02-07T12:21:31.800Z,975.19
2019-02-07T12:22:31.746Z,975.18
2019-02-07T12:23:31.682Z,975.22
2019-02-07T12:24:31.606Z,975.19
2019-02-07T12:25:31.496Z,975.18
2019-02-07T12:26:31.375Z,975.18
2019-02-07T12:27:31.305Z,975.14